createdAt,value
2022-11-12T00:01:16.677Z,24
2022-11-12T00:29:41.202Z,24
2022-11-12T00:58:07.186Z,22
2022-11-12T01:27:03.709Z,24
2022-11-12T01:55:23.683Z,22
2022-11-12T02:23:40.194Z,21
2022-11-12T02:51:56.819Z,21
2022-11-12T03:20:15.799Z,22
2022-11-12T03:48:42.318Z,15
2022-11-12T04:17:03.770Z,20
2022-11-12T04:45:27.793Z,15
2022-11-12T05:13:52.469Z,14
2022-11-12T05:42:12.758Z,21
2022-11-12T06:10:21.880Z,14
2022-11-12T06:38:41.955Z,14
2022-11-12T07:07:06.723Z,15
2022-11-12T07:35:19.188Z,15
2022-11-12T08:03:36.256Z,15
2022-11-12T08:31:56.373Z,14
2022-11-12T09:00:16.097Z,15
2022-11-12T09:28:37.191Z,22
2022-11-12T09:56:45.901Z,22
2022-11-12T10:25:01.805Z,24
2022-11-12T10:53:18.973Z,28
2022-11-12T11:21:44.339Z,26
2022-11-12T11:49:59.490Z,32
2022-11-12T12:18:14.186Z,32
2022-11-12T12:46:32.089Z,28
2022-11-12T13:14:44.681Z,35
2022-11-12T13:43:05.332Z,31
2022-11-12T14:11:29.710Z,29
2022-11-12T15:08:30.594Z,34
2022-11-12T15:36:54.430Z,35
2022-11-12T16:33:29.446Z,46
2022-11-12T17:31:28.462Z,49
2022-11-12T17:59:45.613Z,45
2022-11-12T18:28:10.479Z,40
2022-11-12T18:56:35.270Z,37
2022-11-12T19:55:41.204Z,35
2022-11-12T20:52:33.969Z,35
2022-11-12T22:19:04.593Z,39
2022-11-12T22:47:21.786Z,33
2022-11-12T23:15:43.277Z,31
2022-11-12T23:44:11.396Z,32
